sensor_id;sensor_type;location;lat;lon;timestamp;P1;durP1;ratioP1;P2;durP2;ratioP2
9720;SDS011;4899;42.644;23.366;2023-06-26T00:00:10;25.07;;;22.67;;
9720;SDS011;4899;42.644;23.366;2023-06-26T00:02:36;26.17;;;23.47;;
9720;SDS011;4899;42.644;23.366;2023-06-26T00:05:01;23.27;;;20.93;;
9720;SDS011;4899;42.644;23.366;2023-06-26T00:07:30;25.60;;;22.97;;
9720;SDS011;4899;42.644;23.366;2023-06-26T00:09:56;24.20;;;21.83;;
9720;SDS011;4899;42.644;23.366;2023-06-26T00:12:21;24.17;;;21.80;;
9720;SDS011;4899;42.644;23.366;2023-06-26T00:14:46;23.13;;;20.93;;
9720;SDS011;4899;42.644;23.366;2023-06-26T00:17:12;23.27;;;20.97;;
9720;SDS011;4899;42.644;23.366;2023-06-26T00:19:37;22.40;;;20.30;;
9720;SDS011;4899;42.644;23.366;2023-06-26T00:22:02;22.87;;;20.77;;
9720;SDS011;4899;42.644;23.366;2023-06-26T00:24:27;22.57;;;20.43;;
9720;SDS011;4899;42.644;23.366;2023-06-26T00:26:53;23.87;;;21.03;;
9720;SDS011;4899;42.644;23.366;2023-06-26T00:29:18;20.13;;;18.20;;
9720;SDS011;4899;42.644;23.366;2023-06-26T00:31:43;21.53;;;19.63;;
9720;SDS011;4899;42.644;23.366;2023-06-26T00:34:08;19.83;;;18.10;;
9720;SDS011;4899;42.644;23.366;2023-06-26T00:36:34;20.47;;;18.57;;
9720;SDS011;4899;42.644;23.366;2023-06-26T00:38:59;21.67;;;19.63;;
9720;SDS011;4899;42.644;23.366;2023-06-26T00:41:24;20.03;;;18.23;;
9720;SDS011;4899;42.644;23.366;2023-06-26T00:43:50;19.87;;;18.00;;
9720;SDS011;4899;42.644;23.366;2023-06-26T00:46:16;19.63;;;17.73;;
9720;SDS011;4899;42.644;23.366;2023-06-26T00:48:41;18.80;;;17.00;;
9720;SDS011;4899;42.644;23.366;2023-06-26T00:51:07;19.33;;;17.37;;
9720;SDS011;4899;42.644;23.366;2023-06-26T00:53:32;18.50;;;16.77;;
9720;SDS011;4899;42.644;23.366;2023-06-26T00:55:58;19.47;;;17.57;;
9720;SDS011;4899;42.644;23.366;2023-06-26T00:58:24;18.07;;;16.47;;
9720;SDS011;4899;42.644;23.366;2023-06-26T01:00:50;17.73;;;16.13;;
9720;SDS011;4899;42.644;23.366;2023-06-26T01:03:15;18.20;;;16.47;;
9720;SDS011;4899;42.644;23.366;2023-06-26T01:05:40;17.73;;;16.00;;
9720;SDS011;4899;42.644;23.366;2023-06-26T01:08:07;17.17;;;15.63;;
9720;SDS011;4899;42.644;23.366;2023-06-26T01:10:32;17.27;;;15.67;;
9720;SDS011;4899;42.644;23.366;2023-06-26T01:12:58;17.33;;;15.73;;
9720;SDS011;4899;42.644;23.366;2023-06-26T01:15:23;15.53;;;14.13;;
9720;SDS011;4899;42.644;23.366;2023-06-26T01:17:49;17.23;;;15.57;;
9720;SDS011;4899;42.644;23.366;2023-06-26T01:20:15;17.30;;;15.47;;
9720;SDS011;4899;42.644;23.366;2023-06-26T01:27:42;17.07;;;15.57;;
9720;SDS011;4899;42.644;23.366;2023-06-26T01:30:08;17.13;;;15.53;;
9720;SDS011;4899;42.644;23.366;2023-06-26T01:32:34;17.17;;;15.53;;
9720;SDS011;4899;42.644;23.366;2023-06-26T01:35:00;17.40;;;15.67;;
9720;SDS011;4899;42.644;23.366;2023-06-26T01:37:26;17.90;;;16.17;;
9720;SDS011;4899;42.644;23.366;2023-06-26T01:39:52;16.97;;;15.37;;
9720;SDS011;4899;42.644;23.366;2023-06-26T01:42:18;17.17;;;15.37;;
9720;SDS011;4899;42.644;23.366;2023-06-26T01:44:44;17.73;;;15.93;;
9720;SDS011;4899;42.644;23.366;2023-06-26T01:47:10;17.83;;;16.33;;
9720;SDS011;4899;42.644;23.366;2023-06-26T01:54:42;18.27;;;16.57;;
9720;SDS011;4899;42.644;23.366;2023-06-26T01:57:09;17.57;;;15.97;;
9720;SDS011;4899;42.644;23.366;2023-06-26T01:59:34;17.93;;;16.30;;
9720;SDS011;4899;42.644;23.366;2023-06-26T02:02:00;18.53;;;16.83;;
9720;SDS011;4899;42.644;23.366;2023-06-26T02:04:26;17.40;;;15.77;;
9720;SDS011;4899;42.644;23.366;2023-06-26T02:06:51;18.10;;;16.37;;
9720;SDS011;4899;42.644;23.366;2023-06-26T02:09:16;17.37;;;15.77;;
9720;SDS011;4899;42.644;23.366;2023-06-26T02:11:42;17.67;;;15.87;;
9720;SDS011;4899;42.644;23.366;2023-06-26T02:14:07;17.83;;;16.03;;
9720;SDS011;4899;42.644;23.366;2023-06-26T02:16:34;17.40;;;15.60;;
9720;SDS011;4899;42.644;23.366;2023-06-26T02:18:59;16.93;;;15.33;;
9720;SDS011;4899;42.644;23.366;2023-06-26T02:21:24;18.03;;;16.23;;
9720;SDS011;4899;42.644;23.366;2023-06-26T02:23:50;17.73;;;16.17;;
9720;SDS011;4899;42.644;23.366;2023-06-26T02:26:15;17.73;;;16.17;;
9720;SDS011;4899;42.644;23.366;2023-06-26T02:28:40;19.00;;;17.10;;
9720;SDS011;4899;42.644;23.366;2023-06-26T02:31:06;17.47;;;16.03;;
9720;SDS011;4899;42.644;23.366;2023-06-26T02:33:31;18.87;;;17.03;;
9720;SDS011;4899;42.644;23.366;2023-06-26T02:35:57;18.17;;;16.57;;
9720;SDS011;4899;42.644;23.366;2023-06-26T02:38:22;18.67;;;17.17;;
9720;SDS011;4899;42.644;23.366;2023-06-26T02:40:47;19.90;;;17.87;;
9720;SDS011;4899;42.644;23.366;2023-06-26T02:43:13;19.63;;;17.63;;
9720;SDS011;4899;42.644;23.366;2023-06-26T02:45:38;19.77;;;17.97;;
9720;SDS011;4899;42.644;23.366;2023-06-26T02:48:03;18.40;;;16.80;;
9720;SDS011;4899;42.644;23.366;2023-06-26T02:50:28;22.47;;;20.47;;
9720;SDS011;4899;42.644;23.366;2023-06-26T02:52:54;22.03;;;20.13;;
9720;SDS011;4899;42.644;23.366;2023-06-26T02:55:19;21.93;;;20.07;;
9720;SDS011;4899;42.644;23.366;2023-06-26T02:57:46;21.47;;;19.67;;
9720;SDS011;4899;42.644;23.366;2023-06-26T03:00:11;21.00;;;19.10;;
9720;SDS011;4899;42.644;23.366;2023-06-26T03:02:37;20.27;;;18.57;;
9720;SDS011;4899;42.644;23.366;2023-06-26T03:05:02;20.63;;;18.90;;
9720;SDS011;4899;42.644;23.366;2023-06-26T03:07:28;22.40;;;20.23;;
9720;SDS011;4899;42.644;23.366;2023-06-26T03:09:53;20.63;;;18.87;;
9720;SDS011;4899;42.644;23.366;2023-06-26T03:12:18;21.80;;;20.00;;
9720;SDS011;4899;42.644;23.366;2023-06-26T03:14:43;23.93;;;21.83;;
9720;SDS011;4899;42.644;23.366;2023-06-26T03:17:09;22.90;;;20.80;;
9720;SDS011;4899;42.644;23.366;2023-06-26T03:19:34;23.10;;;21.03;;
9720;SDS011;4899;42.644;23.366;2023-06-26T03:22:00;23.53;;;21.53;;
9720;SDS011;4899;42.644;23.366;2023-06-26T03:24:25;22.07;;;20.17;;
9720;SDS011;4899;42.644;23.366;2023-06-26T03:26:50;22.27;;;20.27;;
9720;SDS011;4899;42.644;23.366;2023-06-26T03:29:16;22.50;;;20.40;;
9720;SDS011;4899;42.644;23.366;2023-06-26T03:31:42;22.13;;;20.03;;
9720;SDS011;4899;42.644;23.366;2023-06-26T03:34:07;22.63;;;20.83;;
9720;SDS011;4899;42.644;23.366;2023-06-26T03:36:32;22.37;;;20.57;;
9720;SDS011;4899;42.644;23.366;2023-06-26T03:38:58;22.30;;;20.40;;
9720;SDS011;4899;42.644;23.366;2023-06-26T03:41:23;22.23;;;20.50;;
9720;SDS011;4899;42.644;23.366;2023-06-26T03:43:49;22.30;;;20.17;;
9720;SDS011;4899;42.644;23.366;2023-06-26T03:46:14;21.80;;;20.10;;
9720;SDS011;4899;42.644;23.366;2023-06-26T03:48:39;22.33;;;20.50;;
9720;SDS011;4899;42.644;23.366;2023-06-26T03:51:04;23.60;;;21.47;;
9720;SDS011;4899;42.644;23.366;2023-06-26T03:53:31;22.70;;;20.77;;
9720;SDS011;4899;42.644;23.366;2023-06-26T03:55:57;23.80;;;21.67;;
9720;SDS011;4899;42.644;23.366;2023-06-26T03:58:22;23.30;;;20.90;;
9720;SDS011;4899;42.644;23.366;2023-06-26T04:00:47;23.93;;;21.83;;
9720;SDS011;4899;42.644;23.366;2023-06-26T04:03:13;23.37;;;21.47;;
9720;SDS011;4899;42.644;23.366;2023-06-26T04:05:38;23.53;;;21.43;;
9720;SDS011;4899;42.644;23.366;2023-06-26T04:08:03;23.83;;;21.73;;
9720;SDS011;4899;42.644;23.366;2023-06-26T04:10:28;23.90;;;21.67;;
9720;SDS011;4899;42.644;23.366;2023-06-26T04:12:54;22.73;;;20.80;;
9720;SDS011;4899;42.644;23.366;2023-06-26T04:15:19;22.70;;;20.70;;
9720;SDS011;4899;42.644;23.366;2023-06-26T04:17:44;22.17;;;20.03;;
9720;SDS011;4899;42.644;23.366;2023-06-26T04:20:09;21.17;;;19.27;;
9720;SDS011;4899;42.644;23.366;2023-06-26T04:22:35;21.87;;;20.03;;
9720;SDS011;4899;42.644;23.366;2023-06-26T04:25:02;22.73;;;20.93;;
9720;SDS011;4899;42.644;23.366;2023-06-26T04:27:28;19.77;;;17.93;;
9720;SDS011;4899;42.644;23.366;2023-06-26T04:29:53;19.43;;;17.93;;
9720;SDS011;4899;42.644;23.366;2023-06-26T04:32:18;19.53;;;17.87;;
9720;SDS011;4899;42.644;23.366;2023-06-26T04:34:43;19.20;;;17.70;;
9720;SDS011;4899;42.644;23.366;2023-06-26T04:37:09;19.17;;;17.67;;
9720;SDS011;4899;42.644;23.366;2023-06-26T04:39:34;20.27;;;18.57;;
9720;SDS011;4899;42.644;23.366;2023-06-26T04:42:01;19.80;;;18.07;;
9720;SDS011;4899;42.644;23.366;2023-06-26T04:44:27;19.27;;;17.63;;
9720;SDS011;4899;42.644;23.366;2023-06-26T04:46:52;19.17;;;17.57;;
9720;SDS011;4899;42.644;23.366;2023-06-26T04:49:17;20.83;;;18.97;;
9720;SDS011;4899;42.644;23.366;2023-06-26T04:51:43;19.77;;;18.07;;
9720;SDS011;4899;42.644;23.366;2023-06-26T04:54:10;19.53;;;17.87;;
9720;SDS011;4899;42.644;23.366;2023-06-26T04:56:35;19.83;;;17.87;;
9720;SDS011;4899;42.644;23.366;2023-06-26T04:59:01;20.50;;;18.77;;
9720;SDS011;4899;42.644;23.366;2023-06-26T05:01:26;20.53;;;18.83;;
9720;SDS011;4899;42.644;23.366;2023-06-26T05:03:55;20.87;;;19.17;;
9720;SDS011;4899;42.644;23.366;2023-06-26T05:06:20;20.80;;;19.00;;
9720;SDS011;4899;42.644;23.366;2023-06-26T05:08:45;20.67;;;18.87;;
9720;SDS011;4899;42.644;23.366;2023-06-26T05:11:11;20.83;;;19.13;;
9720;SDS011;4899;42.644;23.366;2023-06-26T05:13:36;21.83;;;20.07;;
9720;SDS011;4899;42.644;23.366;2023-06-26T05:16:01;19.67;;;18.13;;
9720;SDS011;4899;42.644;23.366;2023-06-26T05:18:26;20.33;;;18.63;;
9720;SDS011;4899;42.644;23.366;2023-06-26T05:20:52;18.90;;;17.20;;
9720;SDS011;4899;42.644;23.366;2023-06-26T05:23:17;18.20;;;16.63;;
9720;SDS011;4899;42.644;23.366;2023-06-26T05:25:43;19.73;;;18.03;;
9720;SDS011;4899;42.644;23.366;2023-06-26T05:28:08;19.73;;;18.03;;
9720;SDS011;4899;42.644;23.366;2023-06-26T05:30:35;20.13;;;18.33;;
9720;SDS011;4899;42.644;23.366;2023-06-26T05:33:02;20.20;;;18.60;;
9720;SDS011;4899;42.644;23.366;2023-06-26T05:35:28;19.37;;;17.63;;
9720;SDS011;4899;42.644;23.366;2023-06-26T05:37:55;19.57;;;18.07;;
9720;SDS011;4899;42.644;23.366;2023-06-26T05:40:20;18.87;;;17.27;;
9720;SDS011;4899;42.644;23.366;2023-06-26T05:42:46;18.30;;;16.80;;
9720;SDS011;4899;42.644;23.366;2023-06-26T05:45:11;17.73;;;16.23;;
9720;SDS011;4899;42.644;23.366;2023-06-26T05:47:36;18.23;;;16.73;;
9720;SDS011;4899;42.644;23.366;2023-06-26T05:50:02;17.70;;;16.23;;
9720;SDS011;4899;42.644;23.366;2023-06-26T05:52:27;17.83;;;16.37;;
9720;SDS011;4899;42.644;23.366;2023-06-26T05:54:53;16.83;;;15.53;;
9720;SDS011;4899;42.644;23.366;2023-06-26T05:57:19;18.10;;;16.50;;
9720;SDS011;4899;42.644;23.366;2023-06-26T05:59:45;17.60;;;16.27;;
9720;SDS011;4899;42.644;23.366;2023-06-26T06:02:11;16.80;;;15.40;;
9720;SDS011;4899;42.644;23.366;2023-06-26T06:04:37;18.10;;;16.60;;
9720;SDS011;4899;42.644;23.366;2023-06-26T06:07:02;19.37;;;16.97;;
9720;SDS011;4899;42.644;23.366;2023-06-26T06:09:28;18.33;;;16.83;;
9720;SDS011;4899;42.644;23.366;2023-06-26T06:11:53;17.37;;;15.77;;
9720;SDS011;4899;42.644;23.366;2023-06-26T06:14:18;17.43;;;15.83;;
9720;SDS011;4899;42.644;23.366;2023-06-26T06:16:43;16.83;;;15.43;;
9720;SDS011;4899;42.644;23.366;2023-06-26T06:19:08;16.73;;;15.33;;
9720;SDS011;4899;42.644;23.366;2023-06-26T06:21:36;17.00;;;15.20;;
9720;SDS011;4899;42.644;23.366;2023-06-26T06:24:01;16.97;;;15.50;;
9720;SDS011;4899;42.644;23.366;2023-06-26T06:26:27;16.00;;;14.40;;
9720;SDS011;4899;42.644;23.366;2023-06-26T06:28:52;16.67;;;15.30;;
9720;SDS011;4899;42.644;23.366;2023-06-26T06:31:17;16.93;;;15.40;;
9720;SDS011;4899;42.644;23.366;2023-06-26T06:33:42;15.70;;;14.40;;
9720;SDS011;4899;42.644;23.366;2023-06-26T06:36:08;15.93;;;14.63;;
9720;SDS011;4899;42.644;23.366;2023-06-26T06:38:33;17.03;;;15.20;;
9720;SDS011;4899;42.644;23.366;2023-06-26T06:40:58;16.00;;;14.60;;
9720;SDS011;4899;42.644;23.366;2023-06-26T06:43:23;16.33;;;14.63;;
9720;SDS011;4899;42.644;23.366;2023-06-26T06:45:49;15.17;;;13.87;;
9720;SDS011;4899;42.644;23.366;2023-06-26T06:48:15;15.20;;;13.83;;
9720;SDS011;4899;42.644;23.366;2023-06-26T06:50:40;15.07;;;13.90;;
9720;SDS011;4899;42.644;23.366;2023-06-26T06:53:07;14.20;;;12.97;;
9720;SDS011;4899;42.644;23.366;2023-06-26T06:55:32;14.67;;;13.37;;
9720;SDS011;4899;42.644;23.366;2023-06-26T06:57:57;15.80;;;14.50;;
9720;SDS011;4899;42.644;23.366;2023-06-26T07:00:23;16.57;;;15.07;;
9720;SDS011;4899;42.644;23.366;2023-06-26T07:02:48;16.87;;;15.37;;
9720;SDS011;4899;42.644;23.366;2023-06-26T07:05:13;12.83;;;11.63;;
9720;SDS011;4899;42.644;23.366;2023-06-26T07:07:39;13.67;;;12.53;;
9720;SDS011;4899;42.644;23.366;2023-06-26T07:10:05;13.87;;;12.87;;
9720;SDS011;4899;42.644;23.366;2023-06-26T07:12:31;13.80;;;12.73;;
9720;SDS011;4899;42.644;23.366;2023-06-26T07:14:56;15.73;;;14.33;;
9720;SDS011;4899;42.644;23.366;2023-06-26T07:17:21;11.40;;;10.40;;
9720;SDS011;4899;42.644;23.366;2023-06-26T07:19:47;11.67;;;10.77;;
9720;SDS011;4899;42.644;23.366;2023-06-26T07:22:12;12.73;;;11.63;;
9720;SDS011;4899;42.644;23.366;2023-06-26T07:24:37;11.53;;;10.53;;
9720;SDS011;4899;42.644;23.366;2023-06-26T07:27:03;11.43;;;10.60;;
9720;SDS011;4899;42.644;23.366;2023-06-26T07:29:28;10.13;;;9.27;;
9720;SDS011;4899;42.644;23.366;2023-06-26T07:31:53;10.50;;;9.70;;
9720;SDS011;4899;42.644;23.366;2023-06-26T07:34:19;11.37;;;9.60;;
9720;SDS011;4899;42.644;23.366;2023-06-26T07:36:44;10.37;;;9.50;;
9720;SDS011;4899;42.644;23.366;2023-06-26T07:39:09;11.20;;;10.27;;
9720;SDS011;4899;42.644;23.366;2023-06-26T07:41:35;9.67;;;8.87;;
9720;SDS011;4899;42.644;23.366;2023-06-26T07:44:00;9.10;;;8.40;;
9720;SDS011;4899;42.644;23.366;2023-06-26T07:46:25;9.30;;;7.90;;
9720;SDS011;4899;42.644;23.366;2023-06-26T07:48:52;9.30;;;8.23;;
9720;SDS011;4899;42.644;23.366;2023-06-26T07:51:17;8.40;;;7.60;;
9720;SDS011;4899;42.644;23.366;2023-06-26T07:53:42;7.83;;;7.33;;
9720;SDS011;4899;42.644;23.366;2023-06-26T07:56:08;6.93;;;6.43;;
9720;SDS011;4899;42.644;23.366;2023-06-26T07:58:33;8.13;;;7.43;;
9720;SDS011;4899;42.644;23.366;2023-06-26T08:00:58;7.93;;;7.23;;
9720;SDS011;4899;42.644;23.366;2023-06-26T08:03:30;8.13;;;7.33;;
9720;SDS011;4899;42.644;23.366;2023-06-26T08:05:55;7.20;;;6.70;;
9720;SDS011;4899;42.644;23.366;2023-06-26T08:08:20;8.10;;;7.30;;
9720;SDS011;4899;42.644;23.366;2023-06-26T08:10:45;11.17;;;7.70;;
9720;SDS011;4899;42.644;23.366;2023-06-26T08:13:11;7.70;;;7.00;;
9720;SDS011;4899;42.644;23.366;2023-06-26T08:15:36;8.67;;;7.40;;
9720;SDS011;4899;42.644;23.366;2023-06-26T08:18:01;9.43;;;6.13;;
9720;SDS011;4899;42.644;23.366;2023-06-26T08:20:26;6.57;;;5.97;;
9720;SDS011;4899;42.644;23.366;2023-06-26T08:22:53;9.87;;;6.40;;
9720;SDS011;4899;42.644;23.366;2023-06-26T08:25:19;7.30;;;6.70;;
9720;SDS011;4899;42.644;23.366;2023-06-26T08:27:45;6.73;;;6.13;;
9720;SDS011;4899;42.644;23.366;2023-06-26T08:30:10;5.60;;;5.10;;
9720;SDS011;4899;42.644;23.366;2023-06-26T08:32:36;6.57;;;6.07;;
9720;SDS011;4899;42.644;23.366;2023-06-26T08:35:01;8.00;;;6.17;;
9720;SDS011;4899;42.644;23.366;2023-06-26T08:37:26;7.70;;;7.07;;
9720;SDS011;4899;42.644;23.366;2023-06-26T08:39:51;6.73;;;6.13;;
9720;SDS011;4899;42.644;23.366;2023-06-26T08:42:17;6.33;;;5.70;;
9720;SDS011;4899;42.644;23.366;2023-06-26T08:44:42;7.47;;;6.83;;
9720;SDS011;4899;42.644;23.366;2023-06-26T08:47:07;7.47;;;6.80;;
9720;SDS011;4899;42.644;23.366;2023-06-26T08:49:37;7.90;;;6.70;;
9720;SDS011;4899;42.644;23.366;2023-06-26T08:52:07;7.07;;;6.57;;
9720;SDS011;4899;42.644;23.366;2023-06-26T08:54:36;7.43;;;6.73;;
9720;SDS011;4899;42.644;23.366;2023-06-26T08:57:02;6.87;;;6.27;;
9720;SDS011;4899;42.644;23.366;2023-06-26T08:59:28;6.67;;;6.13;;
9720;SDS011;4899;42.644;23.366;2023-06-26T09:01:53;7.20;;;6.60;;
9720;SDS011;4899;42.644;23.366;2023-06-26T09:04:18;7.80;;;6.13;;
9720;SDS011;4899;42.644;23.366;2023-06-26T09:06:44;5.33;;;4.93;;
9720;SDS011;4899;42.644;23.366;2023-06-26T09:09:09;6.67;;;6.17;;
9720;SDS011;4899;42.644;23.366;2023-06-26T09:11:35;6.70;;;6.20;;
9720;SDS011;4899;42.644;23.366;2023-06-26T09:14:00;6.73;;;6.13;;
9720;SDS011;4899;42.644;23.366;2023-06-26T09:16:29;8.17;;;7.30;;
9720;SDS011;4899;42.644;23.366;2023-06-26T09:18:55;6.33;;;5.93;;
9720;SDS011;4899;42.644;23.366;2023-06-26T09:21:21;6.80;;;6.20;;
9720;SDS011;4899;42.644;23.366;2023-06-26T09:23:46;6.67;;;6.17;;
9720;SDS011;4899;42.644;23.366;2023-06-26T09:26:11;8.07;;;7.23;;
9720;SDS011;4899;42.644;23.366;2023-06-26T09:28:37;7.30;;;6.60;;
9720;SDS011;4899;42.644;23.366;2023-06-26T09:31:06;6.63;;;6.03;;
9720;SDS011;4899;42.644;23.366;2023-06-26T09:33:36;6.30;;;5.80;;
9720;SDS011;4899;42.644;23.366;2023-06-26T09:36:04;6.17;;;5.67;;
9720;SDS011;4899;42.644;23.366;2023-06-26T09:38:30;5.70;;;5.20;;
9720;SDS011;4899;42.644;23.366;2023-06-26T09:40:55;5.47;;;5.17;;
9720;SDS011;4899;42.644;23.366;2023-06-26T09:43:21;6.00;;;5.50;;
9720;SDS011;4899;42.644;23.366;2023-06-26T09:45:46;5.97;;;5.43;;
9720;SDS011;4899;42.644;23.366;2023-06-26T09:48:11;6.17;;;5.67;;
9720;SDS011;4899;42.644;23.366;2023-06-26T09:50:39;7.30;;;6.70;;
9720;SDS011;4899;42.644;23.366;2023-06-26T09:53:09;7.17;;;6.57;;
9720;SDS011;4899;42.644;23.366;2023-06-26T09:55:35;7.20;;;6.53;;
9720;SDS011;4899;42.644;23.366;2023-06-26T09:58:04;6.63;;;6.03;;
9720;SDS011;4899;42.644;23.366;2023-06-26T10:00:30;6.97;;;6.40;;
9720;SDS011;4899;42.644;23.366;2023-06-26T10:02:55;7.00;;;6.30;;
9720;SDS011;4899;42.644;23.366;2023-06-26T10:05:21;6.87;;;6.33;;
9720;SDS011;4899;42.644;23.366;2023-06-26T10:07:46;7.00;;;5.87;;
9720;SDS011;4899;42.644;23.366;2023-06-26T10:10:11;6.13;;;5.73;;
9720;SDS011;4899;42.644;23.366;2023-06-26T10:12:37;6.07;;;5.57;;
9720;SDS011;4899;42.644;23.366;2023-06-26T10:15:02;6.20;;;5.70;;
9720;SDS011;4899;42.644;23.366;2023-06-26T10:17:30;6.30;;;5.80;;
9720;SDS011;4899;42.644;23.366;2023-06-26T10:19:55;6.53;;;5.93;;
9720;SDS011;4899;42.644;23.366;2023-06-26T10:22:25;7.03;;;6.23;;
9720;SDS011;4899;42.644;23.366;2023-06-26T10:24:53;6.27;;;5.77;;
9720;SDS011;4899;42.644;23.366;2023-06-26T10:27:21;5.57;;;5.07;;
9720;SDS011;4899;42.644;23.366;2023-06-26T10:29:49;6.65;;;6.05;;
9720;SDS011;4899;42.644;23.366;2023-06-26T10:32:15;5.93;;;5.35;;
9720;SDS011;4899;42.644;23.366;2023-06-26T10:34:42;7.10;;;5.67;;
9720;SDS011;4899;42.644;23.366;2023-06-26T10:37:08;6.03;;;5.47;;
9720;SDS011;4899;42.644;23.366;2023-06-26T10:42:11;6.53;;;6.03;;
9720;SDS011;4899;42.644;23.366;2023-06-26T10:44:43;9.73;;;6.23;;
9720;SDS011;4899;42.644;23.366;2023-06-26T10:47:09;6.43;;;5.80;;
9720;SDS011;4899;42.644;23.366;2023-06-26T10:49:35;6.50;;;5.70;;
9720;SDS011;4899;42.644;23.366;2023-06-26T10:52:01;6.15;;;5.65;;
9720;SDS011;4899;42.644;23.366;2023-06-26T10:54:30;6.63;;;5.93;;
9720;SDS011;4899;42.644;23.366;2023-06-26T10:56:56;6.28;;;5.68;;
9720;SDS011;4899;42.644;23.366;2023-06-26T10:59:22;6.70;;;6.10;;
9720;SDS011;4899;42.644;23.366;2023-06-26T11:01:57;6.30;;;5.70;;
9720;SDS011;4899;42.644;23.366;2023-06-26T11:07:21;7.03;;;6.43;;
9720;SDS011;4899;42.644;23.366;2023-06-26T11:12:33;6.60;;;6.10;;
9720;SDS011;4899;42.644;23.366;2023-06-26T11:14:59;6.90;;;6.13;;
9720;SDS011;4899;42.644;23.366;2023-06-26T11:17:25;8.40;;;5.93;;
9720;SDS011;4899;42.644;23.366;2023-06-26T11:19:50;6.40;;;5.90;;
9720;SDS011;4899;42.644;23.366;2023-06-26T11:22:16;5.73;;;5.33;;
9720;SDS011;4899;42.644;23.366;2023-06-26T11:24:41;5.63;;;5.23;;
9720;SDS011;4899;42.644;23.366;2023-06-26T11:27:08;5.65;;;5.20;;
9720;SDS011;4899;42.644;23.366;2023-06-26T11:29:33;7.30;;;5.63;;
9720;SDS011;4899;42.644;23.366;2023-06-26T11:31:59;6.90;;;6.22;;
9720;SDS011;4899;42.644;23.366;2023-06-26T11:34:25;5.70;;;5.15;;
9720;SDS011;4899;42.644;23.366;2023-06-26T11:36:56;8.82;;;6.05;;
9720;SDS011;4899;42.644;23.366;2023-06-26T11:39:21;7.65;;;6.00;;
9720;SDS011;4899;42.644;23.366;2023-06-26T11:41:47;6.28;;;5.70;;
9720;SDS011;4899;42.644;23.366;2023-06-26T11:44:12;6.00;;;5.47;;
9720;SDS011;4899;42.644;23.366;2023-06-26T11:46:39;5.43;;;5.03;;
9720;SDS011;4899;42.644;23.366;2023-06-26T11:49:07;5.53;;;5.07;;
9720;SDS011;4899;42.644;23.366;2023-06-26T11:51:33;5.63;;;5.18;;
9720;SDS011;4899;42.644;23.366;2023-06-26T11:54:00;6.80;;;5.20;;
9720;SDS011;4899;42.644;23.366;2023-06-26T11:56:26;5.95;;;5.43;;
9720;SDS011;4899;42.644;23.366;2023-06-26T11:58:55;6.20;;;5.68;;
9720;SDS011;4899;42.644;23.366;2023-06-26T12:01:21;10.48;;;6.07;;
9720;SDS011;4899;42.644;23.366;2023-06-26T12:03:47;7.72;;;6.15;;
9720;SDS011;4899;42.644;23.366;2023-06-26T12:06:13;6.32;;;5.82;;
9720;SDS011;4899;42.644;23.366;2023-06-26T12:08:39;6.03;;;5.63;;
9720;SDS011;4899;42.644;23.366;2023-06-26T12:11:04;6.95;;;6.35;;
9720;SDS011;4899;42.644;23.366;2023-06-26T12:13:31;6.00;;;5.53;;
9720;SDS011;4899;42.644;23.366;2023-06-26T12:15:57;6.38;;;5.88;;
9720;SDS011;4899;42.644;23.366;2023-06-26T12:18:22;6.30;;;5.80;;
9720;SDS011;4899;42.644;23.366;2023-06-26T12:20:50;6.15;;;5.63;;
9720;SDS011;4899;42.644;23.366;2023-06-26T12:23:15;5.78;;;5.22;;
9720;SDS011;4899;42.644;23.366;2023-06-26T12:25:40;5.60;;;5.20;;
9720;SDS011;4899;42.644;23.366;2023-06-26T12:28:14;5.60;;;5.20;;
9720;SDS011;4899;42.644;23.366;2023-06-26T12:30:40;6.20;;;5.70;;
9720;SDS011;4899;42.644;23.366;2023-06-26T12:33:12;6.47;;;6.00;;
9720;SDS011;4899;42.644;23.366;2023-06-26T12:35:37;5.97;;;5.38;;
9720;SDS011;4899;42.644;23.366;2023-06-26T12:38:05;7.63;;;5.10;;
9720;SDS011;4899;42.644;23.366;2023-06-26T12:40:30;5.97;;;5.47;;
9720;SDS011;4899;42.644;23.366;2023-06-26T12:42:56;5.65;;;5.25;;
9720;SDS011;4899;42.644;23.366;2023-06-26T12:45:21;5.53;;;4.90;;
9720;SDS011;4899;42.644;23.366;2023-06-26T12:47:47;4.95;;;4.65;;
9720;SDS011;4899;42.644;23.366;2023-06-26T12:50:13;6.78;;;4.80;;
9720;SDS011;4899;42.644;23.366;2023-06-26T12:52:38;7.88;;;5.15;;
9720;SDS011;4899;42.644;23.366;2023-06-26T12:55:04;5.65;;;5.25;;
9720;SDS011;4899;42.644;23.366;2023-06-26T12:57:30;5.88;;;5.38;;
9720;SDS011;4899;42.644;23.366;2023-06-26T12:59:55;6.13;;;5.53;;
9720;SDS011;4899;42.644;23.366;2023-06-26T13:02:20;5.50;;;5.00;;
9720;SDS011;4899;42.644;23.366;2023-06-26T13:04:46;6.18;;;5.78;;
9720;SDS011;4899;42.644;23.366;2023-06-26T13:07:11;6.05;;;5.55;;
9720;SDS011;4899;42.644;23.366;2023-06-26T13:09:37;8.45;;;5.90;;
9720;SDS011;4899;42.644;23.366;2023-06-26T13:12:03;6.43;;;5.82;;
9720;SDS011;4899;42.644;23.366;2023-06-26T13:14:29;7.45;;;6.32;;
9720;SDS011;4899;42.644;23.366;2023-06-26T13:16:55;6.63;;;6.05;;
9720;SDS011;4899;42.644;23.366;2023-06-26T13:19:20;7.18;;;6.38;;
9720;SDS011;4899;42.644;23.366;2023-06-26T13:21:45;6.82;;;6.18;;
9720;SDS011;4899;42.644;23.366;2023-06-26T13:24:10;6.72;;;6.28;;
9720;SDS011;4899;42.644;23.366;2023-06-26T13:26:36;6.40;;;5.90;;
9720;SDS011;4899;42.644;23.366;2023-06-26T13:29:01;6.80;;;6.25;;
9720;SDS011;4899;42.644;23.366;2023-06-26T13:31:27;6.93;;;6.43;;
9720;SDS011;4899;42.644;23.366;2023-06-26T13:33:52;6.32;;;5.82;;
9720;SDS011;4899;42.644;23.366;2023-06-26T13:36:18;6.45;;;5.70;;
9720;SDS011;4899;42.644;23.366;2023-06-26T13:38:43;6.50;;;6.07;;
9720;SDS011;4899;42.644;23.366;2023-06-26T13:41:08;6.65;;;5.82;;
9720;SDS011;4899;42.644;23.366;2023-06-26T13:43:34;7.05;;;5.22;;
9720;SDS011;4899;42.644;23.366;2023-06-26T13:45:59;5.47;;;5.07;;
9720;SDS011;4899;42.644;23.366;2023-06-26T13:48:25;6.30;;;5.80;;
9720;SDS011;4899;42.644;23.366;2023-06-26T13:50:50;6.13;;;5.70;;
9720;SDS011;4899;42.644;23.366;2023-06-26T13:53:16;6.90;;;5.68;;
9720;SDS011;4899;42.644;23.366;2023-06-26T13:55:42;6.35;;;5.82;;
9720;SDS011;4899;42.644;23.366;2023-06-26T13:58:08;6.60;;;6.10;;
9720;SDS011;4899;42.644;23.366;2023-06-26T14:00:34;6.30;;;5.88;;
9720;SDS011;4899;42.644;23.366;2023-06-26T14:03:00;6.47;;;5.80;;
9720;SDS011;4899;42.644;23.366;2023-06-26T14:05:25;6.53;;;5.63;;
9720;SDS011;4899;42.644;23.366;2023-06-26T14:07:51;6.07;;;5.68;;
9720;SDS011;4899;42.644;23.366;2023-06-26T14:10:18;6.18;;;5.68;;
9720;SDS011;4899;42.644;23.366;2023-06-26T14:12:44;6.85;;;6.25;;
9720;SDS011;4899;42.644;23.366;2023-06-26T14:15:09;7.10;;;6.38;;
9720;SDS011;4899;42.644;23.366;2023-06-26T14:17:35;6.55;;;6.05;;
9720;SDS011;4899;42.644;23.366;2023-06-26T14:20:00;7.50;;;6.80;;
9720;SDS011;4899;42.644;23.366;2023-06-26T14:22:25;6.45;;;6.00;;
9720;SDS011;4899;42.644;23.366;2023-06-26T14:24:51;7.43;;;6.63;;
9720;SDS011;4899;42.644;23.366;2023-06-26T14:27:16;6.20;;;5.70;;
9720;SDS011;4899;42.644;23.366;2023-06-26T14:29:41;6.60;;;6.10;;
9720;SDS011;4899;42.644;23.366;2023-06-26T14:32:06;5.75;;;5.25;;
9720;SDS011;4899;42.644;23.366;2023-06-26T14:34:32;6.43;;;5.80;;
9720;SDS011;4899;42.644;23.366;2023-06-26T14:36:57;5.93;;;5.38;;
9720;SDS011;4899;42.644;23.366;2023-06-26T14:39:23;5.60;;;5.20;;
9720;SDS011;4899;42.644;23.366;2023-06-26T14:41:48;5.60;;;5.10;;
9720;SDS011;4899;42.644;23.366;2023-06-26T14:44:14;6.65;;;6.15;;
9720;SDS011;4899;42.644;23.366;2023-06-26T14:46:39;6.30;;;5.70;;
9720;SDS011;4899;42.644;23.366;2023-06-26T14:49:05;7.53;;;6.65;;
9720;SDS011;4899;42.644;23.366;2023-06-26T14:51:30;6.75;;;6.15;;
9720;SDS011;4899;42.644;23.366;2023-06-26T14:53:55;6.90;;;6.30;;
9720;SDS011;4899;42.644;23.366;2023-06-26T14:56:21;6.40;;;5.90;;